ENY2043 KOKC-KLAX
Flight info
| Callsign | ENY2043 |
|---|---|
| Flight time | 2h 40m |
| Altitude | 36000 |
| Route | OLGUY3 YOUSE PNH ABQ/N0454F380 DRK HIPPI GABBL HLYWD1 |
| Aircraft | CRJ7/M-SDFGIRWY/S |
Departure
| Time | 2026-05-04 12:46 |
|---|---|
| Airport | OKC Will Rogers World Airport (KOKC) |
Arrival
| Time | 2026-05-04 15:26 |
|---|---|
| Airport | Los Angeles International Airport (KLAX) |
| Time | Latitude | Longitude | Altitude | Speed | Heading |
|---|---|---|---|---|---|
| 2026-05-04 12:16 | 35.39479 | -97.59849 | 1295 ft | 0 kts | 360° |
| 2026-05-04 12:32 | 35.39466 | -97.59849 | 1295 ft | 4 kts | 360° |
| 2026-05-04 12:32 | 35.39421 | -97.59854 | 1295 ft | 4 kts | 42° |
| 2026-05-04 12:32 | 35.39417 | -97.59878 | 1295 ft | 4 kts | 90° |
| 2026-05-04 12:33 | 35.39417 | -97.59895 | 1294 ft | 0 kts | 90° |
| 2026-05-04 12:36 | 35.39417 | -97.59891 | 1294 ft | 1 kts | 90° |
| 2026-05-04 12:37 | 35.39415 | -97.59864 | 1295 ft | 5 kts | 102° |
| 2026-05-04 12:37 | 35.39392 | -97.59829 | 1294 ft | 6 kts | 157° |
| 2026-05-04 12:37 | 35.39349 | -97.59823 | 1293 ft | 7 kts | 188° |
| 2026-05-04 12:37 | 35.39289 | -97.59828 | 1291 ft | 10 kts | 187° |
| 2026-05-04 12:38 | 35.39231 | -97.59851 | 1291 ft | 8 kts | 221° |
| 2026-05-04 12:38 | 35.39216 | -97.59898 | 1290 ft | 4 kts | 268° |
| 2026-05-04 12:38 | 35.39216 | -97.59920 | 1290 ft | 0 kts | 272° |
| 2026-05-04 12:39 | 35.39217 | -97.59923 | 1290 ft | 1 kts | 303° |
| 2026-05-04 12:40 | 35.39224 | -97.59924 | 1290 ft | 5 kts | 19° |
| 2026-05-04 12:40 | 35.39272 | -97.59927 | 1290 ft | 7 kts | 322° |
| 2026-05-04 12:40 | 35.39306 | -97.59965 | 1291 ft | 6 kts | 316° |
| 2026-05-04 12:40 | 35.39337 | -97.60001 | 1292 ft | 6 kts | 317° |
| 2026-05-04 12:41 | 35.39376 | -97.60045 | 1292 ft | 10 kts | 316° |
| 2026-05-04 12:41 | 35.39434 | -97.60114 | 1290 ft | 13 kts | 317° |
| 2026-05-04 12:41 | 35.39504 | -97.60194 | 1288 ft | 14 kts | 316° |
| 2026-05-04 12:41 | 35.39573 | -97.60276 | 1289 ft | 15 kts | 317° |
| 2026-05-04 12:42 | 35.39661 | -97.60375 | 1286 ft | 19 kts | 326° |
| 2026-05-04 12:42 | 35.39806 | -97.60401 | 1287 ft | 23 kts | 0° |
| 2026-05-04 12:42 | 35.39974 | -97.60401 | 1289 ft | 24 kts | 359° |
| 2026-05-04 12:42 | 35.40130 | -97.60400 | 1292 ft | 22 kts | 0° |
| 2026-05-04 12:43 | 35.40276 | -97.60398 | 1295 ft | 20 kts | 1° |
| 2026-05-04 12:43 | 35.40411 | -97.60402 | 1295 ft | 18 kts | 2° |
| 2026-05-04 12:43 | 35.40530 | -97.60404 | 1295 ft | 15 kts | 351° |
| 2026-05-04 12:43 | 35.40578 | -97.60458 | 1296 ft | 6 kts | 276° |
| 2026-05-04 12:44 | 35.40579 | -97.60463 | 1296 ft | 0 kts | 274° |
| 2026-05-04 12:44 | 35.40580 | -97.60505 | 1296 ft | 7 kts | 270° |
| 2026-05-04 12:44 | 35.40576 | -97.60562 | 1296 ft | 5 kts | 238° |
| 2026-05-04 12:45 | 35.40556 | -97.60573 | 1295 ft | 0 kts | 179° |
| 2026-05-04 12:45 | 35.40522 | -97.60573 | 1295 ft | 18 kts | 180° |
| 2026-05-04 12:45 | 35.40185 | -97.60573 | 1295 ft | 78 kts | 180° |
| 2026-05-04 12:46 | 35.39470 | -97.60574 | 1288 ft | 127 kts | 179° |
| 2026-05-04 12:46 | 35.38473 | -97.60575 | 1301 ft | 163 kts | 180° |
| 2026-05-04 12:46 | 35.37335 | -97.60582 | 1795 ft | 160 kts | 181° |
| 2026-05-04 12:46 | 35.36234 | -97.60876 | 2220 ft | 169 kts | 204° |
| 2026-05-04 12:47 | 35.35240 | -97.61675 | 2727 ft | 168 kts | 213° |
| 2026-05-04 12:47 | 35.34249 | -97.62377 | 3244 ft | 168 kts | 218° |
| 2026-05-04 12:47 | 35.33768 | -97.63585 | 3674 ft | 173 kts | 264° |
| 2026-05-04 12:47 | 35.33796 | -97.65134 | 3982 ft | 190 kts | 269° |
| 2026-05-04 12:48 | 35.33870 | -97.66802 | 4297 ft | 203 kts | 270° |
| 2026-05-04 12:48 | 35.33965 | -97.68588 | 4494 ft | 227 kts | 271° |
| 2026-05-04 12:48 | 35.34098 | -97.70601 | 4870 ft | 246 kts | 272° |
| 2026-05-04 12:48 | 35.34249 | -97.72687 | 5315 ft | 261 kts | 272° |
| 2026-05-04 12:49 | 35.34405 | -97.74930 | 6060 ft | 264 kts | 273° |
| 2026-05-04 12:49 | 35.34562 | -97.77132 | 6791 ft | 267 kts | 273° |
| 2026-05-04 12:49 | 35.34721 | -97.79421 | 7459 ft | 272 kts | 273° |
| 2026-05-04 12:49 | 35.34877 | -97.81667 | 8104 ft | 276 kts | 274° |
| 2026-05-04 12:50 | 35.35030 | -97.83984 | 8705 ft | 280 kts | 274° |
| 2026-05-04 12:50 | 35.35184 | -97.86317 | 9323 ft | 283 kts | 274° |
| 2026-05-04 12:50 | 35.35348 | -97.88746 | 9938 ft | 286 kts | 274° |
| 2026-05-04 12:50 | 35.35508 | -97.91108 | 10524 ft | 289 kts | 274° |
| 2026-05-04 12:51 | 35.35668 | -97.93519 | 11114 ft | 291 kts | 274° |
| 2026-05-04 12:51 | 35.35832 | -97.96003 | 11663 ft | 293 kts | 274° |
| 2026-05-04 12:51 | 35.35993 | -97.98479 | 12190 ft | 296 kts | 275° |
| 2026-05-04 12:51 | 35.36158 | -98.00980 | 12727 ft | 298 kts | 275° |
| 2026-05-04 12:52 | 35.36325 | -98.03505 | 13249 ft | 300 kts | 275° |
| 2026-05-04 12:52 | 35.36490 | -98.06039 | 13775 ft | 302 kts | 275° |
| 2026-05-04 12:52 | 35.36658 | -98.08585 | 14263 ft | 304 kts | 275° |
| 2026-05-04 12:52 | 35.36826 | -98.11187 | 14402 ft | 318 kts | 275° |
| 2026-05-04 12:53 | 35.36989 | -98.13978 | 14432 ft | 336 kts | 274° |
| 2026-05-04 12:53 | 35.37091 | -98.16834 | 14500 ft | 351 kts | 272° |
| 2026-05-04 12:53 | 35.37142 | -98.19813 | 14916 ft | 355 kts | 271° |
| 2026-05-04 12:53 | 35.37189 | -98.22851 | 15390 ft | 357 kts | 271° |
| 2026-05-04 12:54 | 35.37225 | -98.25871 | 15849 ft | 359 kts | 271° |
| 2026-05-04 12:54 | 35.37261 | -98.28865 | 16277 ft | 361 kts | 271° |
| 2026-05-04 12:54 | 35.37297 | -98.31963 | 16706 ft | 363 kts | 271° |
| 2026-05-04 12:54 | 35.37348 | -98.35033 | 17119 ft | 364 kts | 271° |
| 2026-05-04 12:55 | 35.37403 | -98.38069 | 17514 ft | 366 kts | 272° |
| 2026-05-04 12:55 | 35.37450 | -98.41204 | 17910 ft | 367 kts | 271° |
| 2026-05-04 12:55 | 35.37503 | -98.44292 | 18283 ft | 369 kts | 272° |
| 2026-05-04 12:55 | 35.37561 | -98.47414 | 18651 ft | 371 kts | 271° |
| 2026-05-04 12:56 | 35.37610 | -98.50536 | 18998 ft | 373 kts | 271° |
| 2026-05-04 12:56 | 35.37660 | -98.53685 | 19333 ft | 374 kts | 271° |
| 2026-05-04 12:56 | 35.37708 | -98.56834 | 19657 ft | 376 kts | 272° |
| 2026-05-04 12:56 | 35.37761 | -98.60005 | 19978 ft | 377 kts | 271° |
| 2026-05-04 12:57 | 35.37806 | -98.63237 | 20278 ft | 379 kts | 271° |
| 2026-05-04 12:57 | 35.37856 | -98.66442 | 20582 ft | 381 kts | 272° |
| 2026-05-04 12:57 | 35.37901 | -98.69641 | 20875 ft | 382 kts | 271° |
| 2026-05-04 12:57 | 35.37946 | -98.72824 | 21153 ft | 383 kts | 271° |
| 2026-05-04 12:58 | 35.37992 | -98.76100 | 21427 ft | 385 kts | 272° |
| 2026-05-04 12:58 | 35.38038 | -98.79349 | 21694 ft | 386 kts | 271° |
| 2026-05-04 12:58 | 35.38083 | -98.82601 | 21947 ft | 387 kts | 272° |
| 2026-05-04 12:58 | 35.38125 | -98.85829 | 22194 ft | 389 kts | 271° |
| 2026-05-04 12:59 | 35.38168 | -98.89147 | 22434 ft | 390 kts | 271° |
| 2026-05-04 12:59 | 35.38210 | -98.92450 | 22675 ft | 391 kts | 271° |
| 2026-05-04 12:59 | 35.38251 | -98.95744 | 22918 ft | 392 kts | 271° |
| 2026-05-04 12:59 | 35.38292 | -98.99052 | 23141 ft | 393 kts | 271° |
| 2026-05-04 13:00 | 35.38331 | -99.02405 | 23340 ft | 394 kts | 271° |
| 2026-05-04 13:00 | 35.38369 | -99.05695 | 23555 ft | 395 kts | 271° |
| 2026-05-04 13:00 | 35.38405 | -99.09024 | 23757 ft | 397 kts | 271° |
| 2026-05-04 13:00 | 35.38444 | -99.12370 | 23964 ft | 397 kts | 271° |
| 2026-05-04 13:01 | 35.38478 | -99.15758 | 24155 ft | 398 kts | 271° |
| 2026-05-04 13:01 | 35.38485 | -99.19115 | 24351 ft | 399 kts | 270° |
| 2026-05-04 13:01 | 35.38375 | -99.22478 | 24549 ft | 400 kts | 268° |
| 2026-05-04 13:01 | 35.38187 | -99.25800 | 24733 ft | 401 kts | 267° |
| 2026-05-04 13:02 | 35.37984 | -99.29221 | 24931 ft | 402 kts | 267° |
| 2026-05-04 13:02 | 35.37785 | -99.32599 | 25108 ft | 402 kts | 267° |
| 2026-05-04 13:02 | 35.37589 | -99.35973 | 25295 ft | 403 kts | 267° |
| 2026-05-04 13:02 | 35.37412 | -99.39375 | 25453 ft | 404 kts | 267° |
| 2026-05-04 13:03 | 35.37239 | -99.42767 | 25628 ft | 404 kts | 268° |
| 2026-05-04 13:03 | 35.37062 | -99.46174 | 25773 ft | 405 kts | 268° |
| 2026-05-04 13:03 | 35.36886 | -99.49580 | 25933 ft | 406 kts | 268° |
| 2026-05-04 13:03 | 35.36707 | -99.53020 | 26093 ft | 406 kts | 268° |
| 2026-05-04 13:04 | 35.36531 | -99.56396 | 26235 ft | 406 kts | 268° |
| 2026-05-04 13:04 | 35.36350 | -99.59866 | 26366 ft | 407 kts | 268° |
| 2026-05-04 13:04 | 35.36169 | -99.63280 | 26505 ft | 408 kts | 268° |
| 2026-05-04 13:04 | 35.35987 | -99.66718 | 26654 ft | 408 kts | 268° |
| 2026-05-04 13:05 | 35.35804 | -99.70152 | 26780 ft | 409 kts | 268° |
| 2026-05-04 13:05 | 35.35618 | -99.73596 | 26905 ft | 409 kts | 268° |
| 2026-05-04 13:05 | 35.35436 | -99.77007 | 27031 ft | 410 kts | 268° |
| 2026-05-04 13:05 | 35.35250 | -99.80440 | 27166 ft | 410 kts | 268° |
| 2026-05-04 13:06 | 35.35127 | -99.82699 | 27245 ft | 410 kts | 268° |
| 2026-05-04 13:06 | 35.34941 | -99.86180 | 27371 ft | 411 kts | 268° |
| 2026-05-04 13:06 | 35.34749 | -99.89633 | 27483 ft | 412 kts | 268° |
| 2026-05-04 13:06 | 35.34492 | -99.94228 | 27622 ft | 412 kts | 268° |
| 2026-05-04 13:07 | 35.34300 | -99.97693 | 27729 ft | 413 kts | 268° |
| 2026-05-04 13:07 | 35.34173 | -99.99971 | 27807 ft | 413 kts | 268° |
| 2026-05-04 13:07 | 35.33975 | -100.03510 | 27938 ft | 414 kts | 268° |
| 2026-05-04 13:07 | 35.33776 | -100.06993 | 28044 ft | 414 kts | 268° |
| 2026-05-04 13:08 | 35.33584 | -100.10468 | 28153 ft | 414 kts | 268° |
| 2026-05-04 13:08 | 35.33188 | -100.17402 | 28320 ft | 415 kts | 268° |
| 2026-05-04 13:09 | 35.32782 | -100.24416 | 28528 ft | 416 kts | 268° |
| 2026-05-04 13:09 | 35.32373 | -100.31370 | 28692 ft | 416 kts | 268° |
| 2026-05-04 13:10 | 35.31961 | -100.38427 | 28847 ft | 417 kts | 267° |
| 2026-05-04 13:10 | 35.31549 | -100.45325 | 28998 ft | 418 kts | 267° |
| 2026-05-04 13:11 | 35.31130 | -100.52356 | 29124 ft | 419 kts | 268° |
| 2026-05-04 13:11 | 35.30701 | -100.59378 | 29272 ft | 419 kts | 268° |
| 2026-05-04 13:12 | 35.30275 | -100.66361 | 29474 ft | 417 kts | 268° |
| 2026-05-04 13:12 | 35.30057 | -100.69863 | 29894 ft | 408 kts | 268° |
| 2026-05-04 13:12 | 35.29847 | -100.73254 | 30110 ft | 405 kts | 268° |
| 2026-05-04 13:12 | 35.29638 | -100.76643 | 30221 ft | 404 kts | 268° |
| 2026-05-04 13:13 | 35.29426 | -100.80025 | 30356 ft | 403 kts | 268° |
| 2026-05-04 13:13 | 35.29218 | -100.83384 | 30470 ft | 402 kts | 268° |
| 2026-05-04 13:13 | 35.29008 | -100.86744 | 30576 ft | 401 kts | 268° |
| 2026-05-04 13:13 | 35.28788 | -100.90143 | 30719 ft | 400 kts | 268° |
| 2026-05-04 13:14 | 35.28571 | -100.93535 | 30795 ft | 400 kts | 268° |
| 2026-05-04 13:14 | 35.28140 | -101.00306 | 30845 ft | 402 kts | 268° |
| 2026-05-04 13:15 | 35.27700 | -101.07105 | 30863 ft | 405 kts | 268° |
| 2026-05-04 13:15 | 35.27255 | -101.13935 | 30876 ft | 408 kts | 268° |
| 2026-05-04 13:16 | 35.26804 | -101.20839 | 30882 ft | 410 kts | 268° |
| 2026-05-04 13:16 | 35.26337 | -101.27806 | 30882 ft | 413 kts | 267° |
| 2026-05-04 13:17 | 35.25871 | -101.34805 | 30885 ft | 415 kts | 267° |
| 2026-05-04 13:17 | 35.25397 | -101.41864 | 30890 ft | 422 kts | 267° |
| 2026-05-04 13:18 | 35.24912 | -101.48950 | 30895 ft | 427 kts | 267° |
| 2026-05-04 13:18 | 35.24419 | -101.56164 | 30898 ft | 432 kts | 267° |
| 2026-05-04 13:19 | 35.23910 | -101.63520 | 30902 ft | 438 kts | 267° |
| 2026-05-04 13:19 | 35.23429 | -101.70902 | 30901 ft | 441 kts | 269° |
| 2026-05-04 13:20 | 35.23325 | -101.78339 | 30900 ft | 442 kts | 271° |
| 2026-05-04 13:20 | 35.23270 | -101.85839 | 30900 ft | 444 kts | 270° |
| 2026-05-04 13:21 | 35.23140 | -101.93397 | 30900 ft | 448 kts | 270° |
| 2026-05-04 13:21 | 35.22940 | -102.00924 | 30900 ft | 448 kts | 270° |
| 2026-05-04 13:22 | 35.22774 | -102.08563 | 30905 ft | 449 kts | 270° |
| 2026-05-04 13:22 | 35.22621 | -102.16191 | 30906 ft | 450 kts | 270° |
| 2026-05-04 13:23 | 35.22467 | -102.23756 | 30908 ft | 449 kts | 270° |
| 2026-05-04 13:23 | 35.22308 | -102.31349 | 30912 ft | 446 kts | 270° |
| 2026-05-04 13:24 | 35.22149 | -102.38817 | 30912 ft | 437 kts | 270° |
| 2026-05-04 13:24 | 35.21983 | -102.46129 | 30917 ft | 431 kts | 270° |
| 2026-05-04 13:25 | 35.21730 | -102.57056 | 30920 ft | 433 kts | 270° |
| 2026-05-04 13:25 | 35.21556 | -102.64361 | 30931 ft | 437 kts | 270° |
| 2026-05-04 13:26 | 35.21377 | -102.71773 | 30936 ft | 439 kts | 270° |
| 2026-05-04 13:26 | 35.21194 | -102.79204 | 30936 ft | 441 kts | 270° |
| 2026-05-04 13:27 | 35.20998 | -102.86751 | 30934 ft | 442 kts | 270° |
| 2026-05-04 13:27 | 35.20807 | -102.94114 | 30934 ft | 434 kts | 270° |
| 2026-05-04 13:28 | 35.20612 | -103.01390 | 30932 ft | 427 kts | 270° |
| 2026-05-04 13:28 | 35.20414 | -103.08565 | 30932 ft | 421 kts | 269° |
| 2026-05-04 13:29 | 35.20221 | -103.15624 | 30936 ft | 419 kts | 269° |
| 2026-05-04 13:29 | 35.20011 | -103.22737 | 30938 ft | 419 kts | 269° |
| 2026-05-04 13:30 | 35.19809 | -103.29855 | 30942 ft | 419 kts | 269° |
| 2026-05-04 13:30 | 35.19595 | -103.36882 | 30937 ft | 420 kts | 269° |
| 2026-05-04 13:31 | 35.19380 | -103.43996 | 30940 ft | 420 kts | 269° |
| 2026-05-04 13:31 | 35.19164 | -103.51053 | 30937 ft | 420 kts | 269° |
| 2026-05-04 13:32 | 35.18940 | -103.58170 | 30933 ft | 420 kts | 269° |
| 2026-05-04 13:32 | 35.18708 | -103.65323 | 30933 ft | 421 kts | 269° |
| 2026-05-04 13:33 | 35.18478 | -103.72407 | 30930 ft | 421 kts | 269° |
| 2026-05-04 13:33 | 35.18239 | -103.79546 | 30938 ft | 422 kts | 269° |
| 2026-05-04 13:34 | 35.18001 | -103.86618 | 30937 ft | 421 kts | 269° |
| 2026-05-04 13:34 | 35.17758 | -103.93719 | 30944 ft | 420 kts | 269° |
| 2026-05-04 13:35 | 35.17384 | -104.04327 | 30950 ft | 420 kts | 269° |
| 2026-05-04 13:36 | 35.17131 | -104.11409 | 30960 ft | 419 kts | 269° |
| 2026-05-04 13:36 | 35.16874 | -104.18484 | 30974 ft | 419 kts | 269° |
| 2026-05-04 13:37 | 35.16611 | -104.25518 | 30980 ft | 418 kts | 269° |
| 2026-05-04 13:37 | 35.16343 | -104.32592 | 30985 ft | 418 kts | 269° |
| 2026-05-04 13:38 | 35.16079 | -104.39606 | 31001 ft | 418 kts | 268° |
| 2026-05-04 13:38 | 35.15802 | -104.46662 | 31000 ft | 417 kts | 268° |
| 2026-05-04 13:39 | 35.15525 | -104.53755 | 31005 ft | 418 kts | 268° |
| 2026-05-04 13:39 | 35.15242 | -104.60818 | 31006 ft | 419 kts | 268° |
| 2026-05-04 13:40 | 35.14954 | -104.67840 | 31009 ft | 419 kts | 268° |
| 2026-05-04 13:40 | 35.14664 | -104.74932 | 31014 ft | 419 kts | 268° |
| 2026-05-04 13:41 | 35.14377 | -104.81966 | 31022 ft | 419 kts | 268° |
| 2026-05-04 13:41 | 35.14077 | -104.88936 | 31028 ft | 419 kts | 268° |
| 2026-05-04 13:42 | 35.13637 | -104.99288 | 31034 ft | 417 kts | 268° |
| 2026-05-04 13:42 | 35.13325 | -105.06325 | 31045 ft | 417 kts | 268° |
| 2026-05-04 13:43 | 35.13022 | -105.13136 | 31051 ft | 417 kts | 268° |
| 2026-05-04 13:43 | 35.12719 | -105.19863 | 31077 ft | 417 kts | 268° |
| 2026-05-04 13:44 | 35.12415 | -105.26573 | 31081 ft | 417 kts | 268° |
| 2026-05-04 13:44 | 35.12099 | -105.33479 | 31086 ft | 417 kts | 268° |
| 2026-05-04 13:45 | 35.11778 | -105.40391 | 31097 ft | 417 kts | 268° |
| 2026-05-04 13:45 | 35.11454 | -105.47230 | 31109 ft | 418 kts | 268° |
| 2026-05-04 13:46 | 35.11127 | -105.54135 | 31113 ft | 418 kts | 268° |
| 2026-05-04 13:46 | 35.10785 | -105.61193 | 31117 ft | 418 kts | 268° |
| 2026-05-04 13:47 | 35.10441 | -105.68272 | 31126 ft | 419 kts | 268° |
| 2026-05-04 13:47 | 35.10092 | -105.75335 | 31129 ft | 420 kts | 268° |
| 2026-05-04 13:48 | 35.09738 | -105.82339 | 31121 ft | 420 kts | 268° |
| 2026-05-04 13:48 | 35.09384 | -105.89381 | 31124 ft | 420 kts | 267° |
| 2026-05-04 13:49 | 35.09023 | -105.96429 | 31115 ft | 421 kts | 267° |
| 2026-05-04 13:49 | 35.08654 | -106.03579 | 31108 ft | 422 kts | 267° |
| 2026-05-04 13:50 | 35.08281 | -106.10701 | 31109 ft | 422 kts | 267° |
| 2026-05-04 13:50 | 35.07907 | -106.17764 | 31103 ft | 422 kts | 267° |
| 2026-05-04 13:51 | 35.07526 | -106.24870 | 31099 ft | 421 kts | 267° |
| 2026-05-04 13:51 | 35.07144 | -106.31933 | 31103 ft | 420 kts | 267° |
| 2026-05-04 13:52 | 35.06558 | -106.42579 | 31102 ft | 421 kts | 267° |
| 2026-05-04 13:53 | 35.06175 | -106.49648 | 31091 ft | 421 kts | 267° |
| 2026-05-04 13:53 | 35.05770 | -106.56749 | 31090 ft | 421 kts | 266° |
| 2026-05-04 13:54 | 35.05231 | -106.66182 | 31090 ft | 420 kts | 266° |
| 2026-05-04 13:55 | 35.04551 | -106.78005 | 31077 ft | 420 kts | 266° |
| 2026-05-04 13:55 | 35.04123 | -106.87448 | 31089 ft | 420 kts | 268° |
| 2026-05-04 13:56 | 35.03863 | -106.94428 | 31097 ft | 421 kts | 268° |
| 2026-05-04 13:57 | 35.03450 | -107.05161 | 31091 ft | 420 kts | 268° |
| 2026-05-04 13:58 | 35.02894 | -107.19249 | 31105 ft | 420 kts | 268° |
| 2026-05-04 13:58 | 35.02467 | -107.29847 | 31111 ft | 420 kts | 267° |
| 2026-05-04 13:59 | 35.02178 | -107.36929 | 31112 ft | 420 kts | 267° |
| 2026-05-04 14:00 | 35.01732 | -107.47548 | 31261 ft | 422 kts | 267° |
| 2026-05-04 14:00 | 35.01430 | -107.54638 | 31556 ft | 421 kts | 267° |
| 2026-05-04 14:00 | 35.01286 | -107.57983 | 31700 ft | 420 kts | 267° |
| 2026-05-04 14:01 | 35.00986 | -107.64935 | 31768 ft | 424 kts | 267° |
| 2026-05-04 14:01 | 35.00670 | -107.72063 | 32003 ft | 424 kts | 267° |
| 2026-05-04 14:02 | 35.00510 | -107.75705 | 32082 ft | 425 kts | 267° |
| 2026-05-04 14:02 | 35.00186 | -107.82857 | 32132 ft | 427 kts | 267° |
| 2026-05-04 14:03 | 34.99859 | -107.90027 | 32139 ft | 426 kts | 267° |
| 2026-05-04 14:03 | 34.99529 | -107.97187 | 32146 ft | 425 kts | 267° |
| 2026-05-04 14:04 | 34.99031 | -108.07886 | 32148 ft | 424 kts | 266° |
| 2026-05-04 14:04 | 34.98690 | -108.15042 | 32147 ft | 424 kts | 266° |
| 2026-05-04 14:05 | 34.98171 | -108.25760 | 32150 ft | 424 kts | 266° |
| 2026-05-04 14:06 | 34.97824 | -108.32854 | 32149 ft | 424 kts | 266° |
| 2026-05-04 14:06 | 34.97468 | -108.40042 | 32140 ft | 424 kts | 266° |
| 2026-05-04 14:07 | 34.97111 | -108.47171 | 32137 ft | 424 kts | 266° |
| 2026-05-04 14:07 | 34.96749 | -108.54271 | 32133 ft | 424 kts | 266° |
| 2026-05-04 14:08 | 34.96381 | -108.61431 | 32142 ft | 424 kts | 266° |
| 2026-05-04 14:08 | 34.96014 | -108.68510 | 32137 ft | 424 kts | 266° |
| 2026-05-04 14:09 | 34.95448 | -108.79259 | 32138 ft | 425 kts | 266° |
| 2026-05-04 14:10 | 34.94890 | -108.89713 | 32142 ft | 425 kts | 266° |
| 2026-05-04 14:10 | 34.94511 | -108.96653 | 32141 ft | 425 kts | 266° |
| 2026-05-04 14:11 | 34.94125 | -109.03661 | 32138 ft | 425 kts | 266° |
| 2026-05-04 14:11 | 34.93547 | -109.14099 | 32127 ft | 425 kts | 266° |
| 2026-05-04 14:12 | 34.93146 | -109.21226 | 32129 ft | 425 kts | 266° |
| 2026-05-04 14:13 | 34.92532 | -109.31961 | 32122 ft | 425 kts | 266° |
| 2026-05-04 14:13 | 34.92134 | -109.38873 | 32119 ft | 425 kts | 266° |
| 2026-05-04 14:14 | 34.91740 | -109.45628 | 32113 ft | 425 kts | 265° |
| 2026-05-04 14:14 | 34.91108 | -109.56302 | 32118 ft | 426 kts | 265° |
| 2026-05-04 14:15 | 34.90247 | -109.70635 | 32109 ft | 426 kts | 265° |
| 2026-05-04 14:16 | 34.89586 | -109.81414 | 32106 ft | 426 kts | 265° |
| 2026-05-04 14:17 | 34.88926 | -109.92086 | 32106 ft | 426 kts | 265° |
| 2026-05-04 14:18 | 34.88251 | -110.02792 | 32108 ft | 426 kts | 265° |
| 2026-05-04 14:19 | 34.87336 | -110.17112 | 32120 ft | 426 kts | 265° |
| 2026-05-04 14:19 | 34.86874 | -110.24244 | 32115 ft | 426 kts | 265° |
| 2026-05-04 14:20 | 34.86406 | -110.31410 | 32099 ft | 426 kts | 265° |
| 2026-05-04 14:20 | 34.85936 | -110.38516 | 32092 ft | 426 kts | 265° |
| 2026-05-04 14:21 | 34.85217 | -110.49272 | 32086 ft | 427 kts | 265° |
| 2026-05-04 14:21 | 34.84734 | -110.56438 | 32082 ft | 427 kts | 265° |
| 2026-05-04 14:22 | 34.84245 | -110.63605 | 32073 ft | 427 kts | 265° |
| 2026-05-04 14:22 | 34.83757 | -110.70727 | 32072 ft | 427 kts | 265° |
| 2026-05-04 14:23 | 34.83011 | -110.81474 | 32069 ft | 427 kts | 264° |
| 2026-05-04 14:24 | 34.82508 | -110.88647 | 32068 ft | 427 kts | 264° |
| 2026-05-04 14:24 | 34.82000 | -110.95802 | 32080 ft | 426 kts | 264° |
| 2026-05-04 14:25 | 34.81494 | -111.02942 | 32081 ft | 426 kts | 264° |
| 2026-05-04 14:25 | 34.80721 | -111.13644 | 32087 ft | 426 kts | 264° |
| 2026-05-04 14:26 | 34.80199 | -111.20781 | 32091 ft | 427 kts | 264° |
| 2026-05-04 14:26 | 34.79675 | -111.27910 | 32088 ft | 427 kts | 264° |
| 2026-05-04 14:27 | 34.79147 | -111.35057 | 32071 ft | 427 kts | 264° |
| 2026-05-04 14:27 | 34.78611 | -111.42219 | 32065 ft | 428 kts | 264° |
| 2026-05-04 14:28 | 34.78075 | -111.49390 | 32053 ft | 428 kts | 264° |
| 2026-05-04 14:28 | 34.77524 | -111.56618 | 32061 ft | 428 kts | 264° |
| 2026-05-04 14:29 | 34.76426 | -111.70944 | 32065 ft | 428 kts | 264° |
| 2026-05-04 14:30 | 34.75868 | -111.78102 | 32060 ft | 428 kts | 264° |
| 2026-05-04 14:31 | 34.75026 | -111.88852 | 32058 ft | 428 kts | 264° |
| 2026-05-04 14:32 | 34.73891 | -112.03144 | 32021 ft | 429 kts | 264° |
| 2026-05-04 14:32 | 34.73313 | -112.10371 | 32006 ft | 428 kts | 264° |
| 2026-05-04 14:33 | 34.72738 | -112.17485 | 32017 ft | 428 kts | 263° |
| 2026-05-04 14:33 | 34.72153 | -112.24654 | 32033 ft | 428 kts | 263° |
| 2026-05-04 14:34 | 34.71562 | -112.31817 | 32039 ft | 428 kts | 263° |
| 2026-05-04 14:34 | 34.70974 | -112.38949 | 32042 ft | 427 kts | 263° |
| 2026-05-04 14:35 | 34.70377 | -112.46105 | 32043 ft | 427 kts | 263° |
| 2026-05-04 14:35 | 34.69688 | -112.53243 | 32041 ft | 427 kts | 262° |
| 2026-05-04 14:36 | 34.68858 | -112.60375 | 32049 ft | 427 kts | 261° |
| 2026-05-04 14:36 | 34.68026 | -112.67475 | 32040 ft | 428 kts | 261° |
| 2026-05-04 14:37 | 34.67186 | -112.74548 | 32034 ft | 427 kts | 261° |
| 2026-05-04 14:37 | 34.66345 | -112.81660 | 32035 ft | 427 kts | 261° |
| 2026-05-04 14:38 | 34.65502 | -112.88738 | 32032 ft | 428 kts | 261° |
| 2026-05-04 14:38 | 34.64651 | -112.95845 | 32022 ft | 428 kts | 261° |
| 2026-05-04 14:39 | 34.63789 | -113.03005 | 32014 ft | 428 kts | 261° |
| 2026-05-04 14:39 | 34.62933 | -113.10074 | 32005 ft | 428 kts | 261° |
| 2026-05-04 14:40 | 34.61626 | -113.20781 | 31990 ft | 428 kts | 261° |
| 2026-05-04 14:40 | 34.60758 | -113.27861 | 31985 ft | 429 kts | 261° |
| 2026-05-04 14:41 | 34.59881 | -113.34994 | 31977 ft | 430 kts | 260° |
| 2026-05-04 14:42 | 34.58260 | -113.48020 | 31974 ft | 429 kts | 261° |
| 2026-05-04 14:42 | 34.57378 | -113.55135 | 31966 ft | 430 kts | 261° |
| 2026-05-04 14:43 | 34.56486 | -113.62284 | 31959 ft | 429 kts | 260° |
| 2026-05-04 14:43 | 34.55608 | -113.69362 | 31951 ft | 429 kts | 261° |
| 2026-05-04 14:44 | 34.54799 | -113.76550 | 31932 ft | 429 kts | 261° |
| 2026-05-04 14:44 | 34.54011 | -113.83637 | 31936 ft | 429 kts | 261° |
| 2026-05-04 14:45 | 34.53210 | -113.90773 | 31935 ft | 429 kts | 261° |
| 2026-05-04 14:45 | 34.52408 | -113.97913 | 31927 ft | 429 kts | 261° |
| 2026-05-04 14:46 | 34.51588 | -114.04986 | 31911 ft | 430 kts | 259° |
| 2026-05-04 14:46 | 34.50291 | -114.12085 | 31910 ft | 428 kts | 255° |
| 2026-05-04 14:47 | 34.48745 | -114.18970 | 31915 ft | 428 kts | 254° |
| 2026-05-04 14:47 | 34.47240 | -114.25918 | 31913 ft | 428 kts | 255° |
| 2026-05-04 14:48 | 34.45769 | -114.32824 | 31913 ft | 428 kts | 255° |
| 2026-05-04 14:48 | 34.44291 | -114.39762 | 31905 ft | 428 kts | 255° |
| 2026-05-04 14:49 | 34.42798 | -114.46734 | 31901 ft | 427 kts | 255° |
| 2026-05-04 14:49 | 34.41319 | -114.53632 | 31900 ft | 427 kts | 255° |
| 2026-05-04 14:50 | 34.39831 | -114.60568 | 31900 ft | 427 kts | 255° |
| 2026-05-04 14:50 | 34.38333 | -114.67501 | 31901 ft | 427 kts | 255° |
| 2026-05-04 14:51 | 34.36851 | -114.74353 | 31906 ft | 426 kts | 255° |
| 2026-05-04 14:51 | 34.35352 | -114.81323 | 31897 ft | 426 kts | 254° |
| 2026-05-04 14:52 | 34.33876 | -114.88197 | 31926 ft | 425 kts | 255° |
| 2026-05-04 14:52 | 34.32385 | -114.95098 | 31934 ft | 426 kts | 254° |
| 2026-05-04 14:53 | 34.30862 | -115.01982 | 31941 ft | 426 kts | 254° |
| 2026-05-04 14:53 | 34.29350 | -115.08869 | 31942 ft | 427 kts | 254° |
| 2026-05-04 14:54 | 34.27827 | -115.15785 | 31934 ft | 428 kts | 254° |
| 2026-05-04 14:54 | 34.26319 | -115.22632 | 31939 ft | 420 kts | 254° |
| 2026-05-04 14:55 | 34.24882 | -115.29331 | 31948 ft | 414 kts | 254° |
| 2026-05-04 14:55 | 34.23493 | -115.35940 | 31950 ft | 408 kts | 254° |
| 2026-05-04 14:56 | 34.22080 | -115.42543 | 31948 ft | 404 kts | 254° |
| 2026-05-04 14:56 | 34.20684 | -115.49016 | 31960 ft | 401 kts | 254° |
| 2026-05-04 14:57 | 34.19301 | -115.55446 | 31960 ft | 397 kts | 254° |
| 2026-05-04 14:57 | 34.17923 | -115.61884 | 31966 ft | 394 kts | 254° |
| 2026-05-04 14:58 | 34.16606 | -115.68070 | 31983 ft | 392 kts | 256° |
| 2026-05-04 14:58 | 34.15787 | -115.74311 | 31984 ft | 390 kts | 261° |
| 2026-05-04 14:59 | 34.15248 | -115.80744 | 31980 ft | 392 kts | 262° |
| 2026-05-04 15:00 | 34.14334 | -115.90678 | 31996 ft | 406 kts | 261° |
| 2026-05-04 15:00 | 34.13677 | -115.97479 | 32008 ft | 414 kts | 261° |
| 2026-05-04 15:01 | 34.13000 | -116.04383 | 31288 ft | 416 kts | 261° |
| 2026-05-04 15:01 | 34.12653 | -116.07800 | 30946 ft | 416 kts | 261° |
| 2026-05-04 15:01 | 34.12317 | -116.11265 | 30480 ft | 413 kts | 261° |
| 2026-05-04 15:01 | 34.11978 | -116.14694 | 30035 ft | 412 kts | 261° |
| 2026-05-04 15:02 | 34.11646 | -116.18057 | 29570 ft | 409 kts | 261° |
| 2026-05-04 15:02 | 34.11310 | -116.21456 | 29018 ft | 406 kts | 261° |
| 2026-05-04 15:02 | 34.10984 | -116.24794 | 28542 ft | 404 kts | 261° |
| 2026-05-04 15:02 | 34.10650 | -116.28154 | 28050 ft | 401 kts | 261° |
| 2026-05-04 15:03 | 34.10308 | -116.31487 | 27591 ft | 399 kts | 260° |
| 2026-05-04 15:03 | 34.09951 | -116.34752 | 27130 ft | 396 kts | 260° |
| 2026-05-04 15:03 | 34.09593 | -116.38049 | 26608 ft | 394 kts | 260° |
| 2026-05-04 15:03 | 34.09258 | -116.41231 | 26011 ft | 393 kts | 260° |
| 2026-05-04 15:04 | 34.08905 | -116.44532 | 25540 ft | 395 kts | 260° |
| 2026-05-04 15:04 | 34.08552 | -116.47825 | 25089 ft | 393 kts | 260° |
| 2026-05-04 15:04 | 34.08208 | -116.51006 | 24658 ft | 390 kts | 260° |
| 2026-05-04 15:04 | 34.07867 | -116.54208 | 24294 ft | 383 kts | 260° |
| 2026-05-04 15:05 | 34.07530 | -116.57342 | 24281 ft | 367 kts | 260° |
| 2026-05-04 15:05 | 34.07218 | -116.60301 | 24289 ft | 363 kts | 260° |
| 2026-05-04 15:05 | 34.06899 | -116.63387 | 23765 ft | 376 kts | 261° |
| 2026-05-04 15:05 | 34.06575 | -116.66538 | 23451 ft | 383 kts | 261° |
| 2026-05-04 15:06 | 34.06275 | -116.69698 | 22957 ft | 382 kts | 261° |
| 2026-05-04 15:06 | 34.05984 | -116.72874 | 22357 ft | 379 kts | 261° |
| 2026-05-04 15:06 | 34.05686 | -116.76022 | 21728 ft | 376 kts | 261° |
| 2026-05-04 15:07 | 34.05133 | -116.82187 | 20520 ft | 370 kts | 262° |
| 2026-05-04 15:07 | 34.04860 | -116.85216 | 19976 ft | 367 kts | 261° |
| 2026-05-04 15:07 | 34.04574 | -116.88258 | 19450 ft | 362 kts | 261° |
| 2026-05-04 15:07 | 34.04247 | -116.91235 | 19172 ft | 352 kts | 259° |
| 2026-05-04 15:08 | 34.03887 | -116.94037 | 19043 ft | 339 kts | 259° |
| 2026-05-04 15:08 | 34.03527 | -116.96811 | 18679 ft | 335 kts | 259° |
| 2026-05-04 15:08 | 34.03162 | -116.99588 | 18225 ft | 334 kts | 259° |
| 2026-05-04 15:08 | 34.02807 | -117.02359 | 17801 ft | 332 kts | 259° |
| 2026-05-04 15:09 | 34.02458 | -117.05077 | 17403 ft | 330 kts | 259° |
| 2026-05-04 15:09 | 34.02112 | -117.07790 | 17181 ft | 322 kts | 259° |
| 2026-05-04 15:09 | 34.01782 | -117.10389 | 17078 ft | 313 kts | 259° |
| 2026-05-04 15:10 | 34.01139 | -117.15677 | 17025 ft | 328 kts | 259° |
| 2026-05-04 15:10 | 34.00820 | -117.18378 | 16757 ft | 327 kts | 260° |
| 2026-05-04 15:10 | 34.00185 | -117.23754 | 15918 ft | 325 kts | 260° |
| 2026-05-04 15:11 | 33.99876 | -117.26438 | 15686 ft | 317 kts | 260° |
| 2026-05-04 15:11 | 33.99589 | -117.28957 | 15684 ft | 304 kts | 260° |
| 2026-05-04 15:11 | 33.99308 | -117.31389 | 15683 ft | 293 kts | 260° |
| 2026-05-04 15:11 | 33.99029 | -117.33785 | 15691 ft | 283 kts | 259° |
| 2026-05-04 15:12 | 33.98763 | -117.36045 | 15675 ft | 274 kts | 261° |
| 2026-05-04 15:12 | 33.98875 | -117.38306 | 15657 ft | 273 kts | 281° |
| 2026-05-04 15:12 | 33.99693 | -117.40365 | 15396 ft | 288 kts | 301° |
| 2026-05-04 15:12 | 34.01009 | -117.42308 | 14896 ft | 308 kts | 309° |
| 2026-05-04 15:13 | 34.02499 | -117.44151 | 14742 ft | 311 kts | 311° |
| 2026-05-04 15:13 | 34.04013 | -117.45919 | 14672 ft | 311 kts | 312° |
| 2026-05-04 15:13 | 34.05488 | -117.47787 | 14562 ft | 307 kts | 300° |
| 2026-05-04 15:13 | 34.06172 | -117.50128 | 14443 ft | 298 kts | 273° |
| 2026-05-04 15:14 | 34.06249 | -117.52613 | 14277 ft | 296 kts | 266° |
| 2026-05-04 15:14 | 34.06064 | -117.55046 | 13966 ft | 293 kts | 257° |
| 2026-05-04 15:14 | 34.05554 | -117.57387 | 13550 ft | 291 kts | 251° |
| 2026-05-04 15:14 | 34.04930 | -117.59667 | 13107 ft | 289 kts | 250° |
| 2026-05-04 15:15 | 34.04292 | -117.61919 | 12624 ft | 288 kts | 250° |
| 2026-05-04 15:15 | 34.03650 | -117.64175 | 12087 ft | 287 kts | 250° |
| 2026-05-04 15:15 | 34.03040 | -117.66427 | 11521 ft | 286 kts | 251° |
| 2026-05-04 15:16 | 34.01972 | -117.70962 | 10562 ft | 276 kts | 259° |
| 2026-05-04 15:16 | 34.01716 | -117.73278 | 9778 ft | 288 kts | 263° |
| 2026-05-04 15:16 | 34.01337 | -117.78137 | 9000 ft | 287 kts | 264° |
| 2026-05-04 15:17 | 34.01154 | -117.80453 | 8667 ft | 281 kts | 264° |
| 2026-05-04 15:17 | 34.00755 | -117.85049 | 7841 ft | 277 kts | 263° |
| 2026-05-04 15:17 | 34.00536 | -117.87352 | 7405 ft | 275 kts | 263° |
| 2026-05-04 15:18 | 34.00316 | -117.89611 | 6971 ft | 273 kts | 263° |
| 2026-05-04 15:18 | 34.00091 | -117.91879 | 6552 ft | 272 kts | 263° |
| 2026-05-04 15:18 | 33.99855 | -117.94101 | 6171 ft | 270 kts | 263° |
| 2026-05-04 15:19 | 33.99387 | -117.98533 | 5340 ft | 266 kts | 264° |
| 2026-05-04 15:19 | 33.99192 | -118.00747 | 4989 ft | 265 kts | 264° |
| 2026-05-04 15:19 | 33.98812 | -118.05095 | 4913 ft | 251 kts | 264° |
| 2026-05-04 15:20 | 33.98626 | -118.07106 | 4898 ft | 237 kts | 263° |
| 2026-05-04 15:20 | 33.98436 | -118.09022 | 4867 ft | 224 kts | 263° |
| 2026-05-04 15:20 | 33.98256 | -118.10792 | 4787 ft | 216 kts | 263° |
| 2026-05-04 15:20 | 33.98065 | -118.12588 | 4551 ft | 216 kts | 262° |
| 2026-05-04 15:21 | 33.97858 | -118.14386 | 4268 ft | 214 kts | 263° |
| 2026-05-04 15:21 | 33.97685 | -118.16087 | 4031 ft | 203 kts | 263° |
| 2026-05-04 15:21 | 33.97354 | -118.19304 | 3483 ft | 190 kts | 263° |
| 2026-05-04 15:22 | 33.97194 | -118.20866 | 3218 ft | 184 kts | 263° |
| 2026-05-04 15:22 | 33.97040 | -118.22373 | 2967 ft | 179 kts | 263° |
| 2026-05-04 15:22 | 33.96750 | -118.25210 | 2521 ft | 159 kts | 263° |
| 2026-05-04 15:23 | 33.96622 | -118.26438 | 2306 ft | 137 kts | 263° |
| 2026-05-04 15:23 | 33.96503 | -118.27596 | 2127 ft | 150 kts | 264° |
| 2026-05-04 15:23 | 33.96382 | -118.28825 | 1950 ft | 143 kts | 263° |
| 2026-05-04 15:23 | 33.96265 | -118.29971 | 1766 ft | 140 kts | 263° |
| 2026-05-04 15:24 | 33.96023 | -118.32348 | 1414 ft | 147 kts | 264° |
| 2026-05-04 15:24 | 33.95763 | -118.34732 | 989 ft | 139 kts | 263° |
| 2026-05-04 15:25 | 33.95642 | -118.35853 | 756 ft | 128 kts | 263° |
| 2026-05-04 15:25 | 33.95543 | -118.36903 | 587 ft | 135 kts | 263° |
| 2026-05-04 15:25 | 33.95437 | -118.37995 | 446 ft | 129 kts | 263° |
| 2026-05-04 15:26 | 33.95211 | -118.40193 | 147 ft | 133 kts | 263° |
| 2026-05-04 15:26 | 33.95104 | -118.41227 | 90 ft | 112 kts | 263° |
| 2026-05-04 15:26 | 33.94968 | -118.42153 | 92 ft | 19 kts | 234° |
| 2026-05-04 15:27 | 33.94878 | -118.42258 | 95 ft | 13 kts | 211° |
| 2026-05-04 15:27 | 33.94701 | -118.42269 | 92 ft | 9 kts | 155° |
| 2026-05-04 15:28 | 33.94696 | -118.42115 | 93 ft | 12 kts | 83° |
| 2026-05-04 15:28 | 33.94707 | -118.42012 | 92 ft | 13 kts | 81° |
| 2026-05-04 15:28 | 33.94730 | -118.41764 | 94 ft | 17 kts | 84° |
| 2026-05-04 15:29 | 33.94746 | -118.41622 | 92 ft | 17 kts | 84° |
| 2026-05-04 15:30 | 33.94790 | -118.41307 | 92 ft | 12 kts | 82° |
| 2026-05-04 15:30 | 33.94826 | -118.40920 | 93 ft | 13 kts | 102° |
| 2026-05-04 15:31 | 33.94714 | -118.40911 | 91 ft | 5 kts | 163° |
| 2026-05-04 15:31 | 33.94698 | -118.40897 | 92 ft | 4 kts | 128° |
| 2026-05-04 15:32 | 33.94674 | -118.40848 | 91 ft | 0 kts | 119° |